PWSweather.com
Personal Weather Stations
Station Observations
KMAMEDFI2
Medfield, MA 02052

Medfield, MA 02052

Lat: 42.1900822, Lon: -71.3296889

Elevation: 138

Station Type: Rainwise WS MK-III

http://www.medfieldweather.com

High Low Average
Temperature 32.4°F0.2°F 13.9°F-10.1°F 23.1°F-4.9°F
Dew Point 27.7°F-2.4°F 12.3°F-10.9°F 20.0°F-6.7°F
Winds 9.2 mph WNW14.8 mph WNW Calm Calm 1.9 mph 3.1 mph
Wind Gusts 9.2 mph14.8 mph -- 1.9 mph3.1 mph
Humidity 94% 68% 88%
Pressure 31.16 in1055.20 in 29.92 in1013.20 in -
Precipitation 0.01 in0.30 in - -
Hour Temp Dew Point Humidity Winds Wind Gusts Pressure Precip Precip Rate Daily Precip Total
12:00 AM 29.2°F-1.6°C 27.7°F-2.4°C 94% 1.2 mph WNW1.9 kmh WNW 2.3 mph3.7 kmh 31.16 in1055.2 mb - 0.00 in0.0 mm 0.00 in0.0 mm
12:10 AM 28.8°F-1.8°C 27.2°F-2.7°C 94% 1.2 mph WNW1.9 kmh WNW 1.2 mph1.9 kmh 31.16 in1055.2 mb - 0.00 in0.0 mm 0.00 in0.0 mm
12:20 AM 28.1°F-2.2°C 26.6°F-3.0°C 94% Calm Calm 1.2 mph1.9 kmh 31.16 in1055.2 mb - 0.00 in0.0 mm 0.00 in0.0 mm
12:30 AM 27.6°F-2.4°C 26.1°F-3.3°C 94% 2.3 mph WNW3.7 kmh WNW 2.3 mph3.7 kmh 31.15 in1054.9 mb - 0.00 in0.0 mm 0.00 in0.0 mm
12:40 AM 27.0°F-2.8°C 25.5°F-3.6°C 94% Calm Calm -- 31.14 in1054.5 mb - 0.00 in0.0 mm 0.00 in0.0 mm
12:50 AM 26.3°F-3.2°C 24.8°F-4.0°C 94% 1.2 mph WNW1.9 kmh WNW 1.2 mph1.9 kmh 31.14 in1054.5 mb - 0.00 in0.0 mm 0.00 in0.0 mm
01:00 AM 25.9°F-3.4°C 24.4°F-4.2°C 94% 2.3 mph WNW3.7 kmh WNW 2.3 mph3.7 kmh 31.13 in1054.2 mb - 0.00 in0.0 mm 0.00 in0.0 mm
01:10 AM 25.4°F-3.7°C 23.9°F-4.5°C 94% 1.2 mph WNW1.9 kmh WNW 1.2 mph1.9 kmh 31.13 in1054.2 mb - 0.00 in0.0 mm 0.00 in0.0 mm
01:20 AM 25.0°F-3.9°C 23.5°F-4.7°C 94% Calm Calm 1.2 mph1.9 kmh 31.13 in1054.2 mb - 0.00 in0.0 mm 0.00 in0.0 mm
01:30 AM 24.9°F-3.9°C 23.1°F-4.9°C 93% 1.2 mph WNW1.9 kmh WNW 1.2 mph1.9 kmh 31.13 in1054.2 mb - 0.00 in0.0 mm 0.00 in0.0 mm
01:40 AM 24.8°F-4.0°C 23.0°F-5.0°C 93% Calm Calm 2.3 mph3.7 kmh 31.13 in1054.2 mb - 0.00 in0.0 mm 0.00 in0.0 mm
01:50 AM 24.6°F-4.1°C 22.8°F-5.1°C 93% 1.2 mph WNW1.9 kmh WNW 1.2 mph1.9 kmh 31.14 in1054.5 mb - 0.00 in0.0 mm 0.00 in0.0 mm
02:00 AM 24.1°F-4.4°C 22.4°F-5.3°C 93% 1.2 mph WNW1.9 kmh WNW 1.2 mph1.9 kmh 31.14 in1054.5 mb - 0.00 in0.0 mm 0.00 in0.0 mm
02:10 AM 23.6°F-4.7°C 21.8°F-5.7°C 93% Calm Calm -- 31.14 in1054.5 mb - 0.00 in0.0 mm 0.00 in0.0 mm
02:20 AM 22.9°F-5.1°C 21.2°F-6.0°C 93% 2.3 mph WNW3.7 kmh WNW 1.2 mph1.9 kmh 31.13 in1054.2 mb - 0.00 in0.0 mm 0.00 in0.0 mm
02:30 AM 22.7°F-5.2°C 20.9°F-6.2°C 93% Calm Calm -- 31.13 in1054.2 mb - 0.00 in0.0 mm 0.00 in0.0 mm
02:40 AM 22.2°F-5.4°C 20.4°F-6.4°C 93% 2.3 mph WNW3.7 kmh WNW 2.3 mph3.7 kmh 31.12 in1053.8 mb - 0.00 in0.0 mm 0.00 in0.0 mm
02:50 AM 21.5°F-5.8°C 19.8°F-6.8°C 93% Calm Calm -- 31.11 in1053.5 mb - 0.00 in0.0 mm 0.00 in0.0 mm
03:00 AM 21.4°F-5.9°C 19.7°F-6.8°C 93% Calm Calm 1.2 mph1.9 kmh 31.11 in1053.5 mb - 0.00 in0.0 mm 0.00 in0.0 mm
03:10 AM 21.9°F-5.6°C 20.1°F-6.6°C 93% 2.3 mph WNW3.7 kmh WNW 1.2 mph1.9 kmh 31.09 in1052.8 mb - 0.00 in0.0 mm 0.00 in0.0 mm
03:20 AM 21.8°F-5.7°C 20.1°F-6.6°C 93% Calm Calm -- 31.11 in1053.5 mb - 0.00 in0.0 mm 0.00 in0.0 mm
03:30 AM 21.6°F-5.8°C 19.9°F-6.7°C 93% 1.2 mph WNW1.9 kmh WNW 1.2 mph1.9 kmh 31.11 in1053.5 mb - 0.00 in0.0 mm 0.00 in0.0 mm
03:40 AM 21.4°F-5.9°C 19.7°F-6.8°C 93% 3.5 mph WNW5.6 kmh WNW 2.3 mph3.7 kmh 31.11 in1053.5 mb - 0.00 in0.0 mm 0.00 in0.0 mm
03:50 AM 21.1°F-6.1°C 19.4°F-7.0°C 93% 2.3 mph WNW3.7 kmh WNW 1.2 mph1.9 kmh 31.10 in1053.2 mb - 0.00 in0.0 mm 0.00 in0.0 mm
04:00 AM 20.8°F-6.2°C 19.1°F-7.2°C 93% 2.3 mph WNW3.7 kmh WNW 2.3 mph3.7 kmh 31.09 in1052.8 mb - 0.00 in0.0 mm 0.00 in0.0 mm
04:10 AM 20.4°F-6.4°C 18.7°F-7.4°C 93% 1.2 mph WNW1.9 kmh WNW 1.2 mph1.9 kmh 31.09 in1052.8 mb - 0.00 in0.0 mm 0.00 in0.0 mm
04:20 AM 19.8°F-6.8°C 18.1°F-7.7°C 93% 1.2 mph WNW1.9 kmh WNW 1.2 mph1.9 kmh 31.09 in1052.8 mb - 0.00 in0.0 mm 0.00 in0.0 mm
04:30 AM 19.3°F-7.1°C 17.6°F-8.0°C 93% 2.3 mph WNW3.7 kmh WNW 2.3 mph3.7 kmh 31.09 in1052.8 mb - 0.00 in0.0 mm 0.00 in0.0 mm
04:40 AM 18.9°F-7.3°C 17.2°F-8.2°C 93% Calm Calm -- 31.08 in1052.5 mb - 0.00 in0.0 mm 0.00 in0.0 mm
04:50 AM 18.4°F-7.6°C 16.7°F-8.5°C 93% Calm Calm -- 31.07 in1052.2 mb - 0.00 in0.0 mm 0.00 in0.0 mm
05:00 AM 17.8°F-7.9°C 16.1°F-8.8°C 93% Calm Calm -- 31.08 in1052.5 mb - 0.00 in0.0 mm 0.00 in0.0 mm
05:10 AM 17.5°F-8.1°C 15.8°F-9.0°C 93% Calm Calm -- 31.07 in1052.2 mb - 0.00 in0.0 mm 0.00 in0.0 mm
05:20 AM 16.8°F-8.4°C 15.1°F-9.4°C 93% Calm Calm -- 31.07 in1052.2 mb - 0.00 in0.0 mm 0.00 in0.0 mm
05:30 AM 16.2°F-8.8°C 14.5°F-9.7°C 93% Calm Calm -- 31.08 in1052.5 mb - 0.00 in0.0 mm 0.00 in0.0 mm
05:40 AM 15.9°F-8.9°C 14.2°F-9.9°C 93% Calm Calm -- 31.08 in1052.5 mb - 0.00 in0.0 mm 0.00 in0.0 mm
05:50 AM 15.9°F-8.9°C 14.2°F-9.9°C 93% Calm Calm -- 31.08 in1052.5 mb - 0.00 in0.0 mm 0.00 in0.0 mm
06:00 AM 15.7°F-9.1°C 14.0°F-10.0°C 93% Calm Calm -- 31.08 in1052.5 mb - 0.00 in0.0 mm 0.00 in0.0 mm
06:10 AM 15.2°F-9.3°C 13.5°F-10.3°C 93% Calm Calm -- 31.07 in1052.2 mb - 0.00 in0.0 mm 0.00 in0.0 mm
06:20 AM 14.9°F-9.5°C 13.2°F-10.4°C 93% Calm Calm -- 31.07 in1052.2 mb - 0.00 in0.0 mm 0.00 in0.0 mm
06:30 AM 14.7°F-9.6°C 13.0°F-10.6°C 93% Calm Calm 1.2 mph1.9 kmh 31.07 in1052.2 mb - 0.00 in0.0 mm 0.00 in0.0 mm
06:40 AM 14.6°F-9.7°C 12.9°F-10.6°C 93% 2.3 mph WNW3.7 kmh WNW 1.2 mph1.9 kmh 31.07 in1052.2 mb - 0.00 in0.0 mm 0.00 in0.0 mm
06:50 AM 13.9°F-10.1°C 12.3°F-10.9°C 93% 1.2 mph WNW1.9 kmh WNW 1.2 mph1.9 kmh 31.07 in1052.2 mb - 0.00 in0.0 mm 0.00 in0.0 mm
07:00 AM 14.1°F-9.9°C 12.4°F-10.9°C 93% Calm Calm 1.2 mph1.9 kmh 31.06 in1051.8 mb - 0.00 in0.0 mm 0.00 in0.0 mm
07:10 AM 14.4°F-9.8°C 12.7°F-10.7°C 93% 1.2 mph WNW1.9 kmh WNW 2.3 mph3.7 kmh 31.05 in1051.5 mb - 0.00 in0.0 mm 0.00 in0.0 mm
07:20 AM 14.8°F-9.6°C 13.1°F-10.5°C 93% 1.2 mph WNW1.9 kmh WNW 2.3 mph3.7 kmh 31.05 in1051.5 mb - 0.00 in0.0 mm 0.00 in0.0 mm
07:30 AM 15.1°F-9.4°C 13.4°F-10.3°C 93% 1.2 mph WNW1.9 kmh WNW 2.3 mph3.7 kmh 31.05 in1051.5 mb - 0.00 in0.0 mm 0.00 in0.0 mm
07:40 AM 14.7°F-9.6°C 13.0°F-10.6°C 93% 1.2 mph WNW1.9 kmh WNW 2.3 mph3.7 kmh 31.04 in1051.1 mb - 0.00 in0.0 mm 0.00 in0.0 mm
07:50 AM 14.9°F-9.5°C 13.2°F-10.4°C 93% Calm Calm 1.2 mph1.9 kmh 31.04 in1051.1 mb - 0.00 in0.0 mm 0.00 in0.0 mm
08:00 AM 14.9°F-9.5°C 13.2°F-10.4°C 93% 2.3 mph WNW3.7 kmh WNW 2.3 mph3.7 kmh 31.03 in1050.8 mb - 0.00 in0.0 mm 0.00 in0.0 mm
08:10 AM 15.3°F-9.3°C 13.6°F-10.2°C 93% Calm Calm -- 31.03 in1050.8 mb - 0.00 in0.0 mm 0.00 in0.0 mm
08:20 AM 15.6°F-9.1°C 13.9°F-10.1°C 93% Calm Calm 2.3 mph3.7 kmh 31.03 in1050.8 mb - 0.00 in0.0 mm 0.00 in0.0 mm
08:30 AM 16.1°F-8.8°C 14.4°F-9.8°C 93% 1.2 mph WNW1.9 kmh WNW -- 31.02 in1050.5 mb - 0.00 in0.0 mm 0.00 in0.0 mm
08:40 AM 16.6°F-8.6°C 14.9°F-9.5°C 93% Calm Calm -- 31.00 in1049.8 mb - 0.00 in0.0 mm 0.00 in0.0 mm
08:50 AM 18.0°F-7.8°C 16.3°F-8.7°C 93% 1.2 mph WNW1.9 kmh WNW -- 30.90 in1046.4 mb - 0.00 in0.0 mm 0.00 in0.0 mm
09:00 AM 19.2°F-7.1°C 17.5°F-8.1°C 93% 1.2 mph WNW1.9 kmh WNW 1.2 mph1.9 kmh 30.86 in1045.0 mb - 0.00 in0.0 mm 0.00 in0.0 mm
09:10 AM 20.0°F-6.7°C 18.3°F-7.6°C 93% 2.3 mph WNW3.7 kmh WNW 2.3 mph3.7 kmh 30.83 in1044.0 mb - 0.00 in0.0 mm 0.00 in0.0 mm
09:20 AM 20.9°F-6.2°C 19.2°F-7.1°C 93% 1.2 mph WNW1.9 kmh WNW 1.2 mph1.9 kmh 30.83 in1044.0 mb - 0.00 in0.0 mm 0.00 in0.0 mm
09:30 AM 21.0°F-6.1°C 19.3°F-7.1°C 93% 2.3 mph WNW3.7 kmh WNW 2.3 mph3.7 kmh 30.80 in1043.0 mb - 0.00 in0.0 mm 0.00 in0.0 mm
09:40 AM 21.4°F-5.9°C 19.7°F-6.8°C 93% 2.3 mph WNW3.7 kmh WNW 2.3 mph3.7 kmh 30.80 in1043.0 mb - 0.00 in0.0 mm 0.00 in0.0 mm
09:50 AM 21.8°F-5.7°C 20.1°F-6.6°C 93% Calm Calm -- 30.78 in1042.3 mb - 0.00 in0.0 mm 0.00 in0.0 mm
10:00 AM 22.6°F-5.2°C 20.9°F-6.2°C 93% 1.2 mph WNW1.9 kmh WNW 1.2 mph1.9 kmh 30.54 in1034.2 mb - 0.00 in0.0 mm 0.00 in0.0 mm
10:10 AM 23.9°F-4.5°C 18.0°F-7.8°C 78% 2.3 mph WNW3.7 kmh WNW 2.3 mph3.7 kmh 30.00 in1015.9 mb - 0.00 in0.0 mm 0.00 in0.0 mm
10:20 AM 24.8°F-4.0°C 19.5°F-6.9°C 80% 1.2 mph WNW1.9 kmh WNW 1.2 mph1.9 kmh 30.34 in1027.4 mb - 0.00 in0.0 mm 0.00 in0.0 mm
10:30 AM 25.8°F-3.4°C 19.3°F-7.1°C 76% 2.3 mph NE3.7 kmh NE 2.3 mph3.7 kmh 29.93 in1013.5 mb - 0.00 in0.0 mm 0.00 in0.0 mm
10:40 AM 27.0°F-2.8°C 18.5°F-7.5°C 70% 2.3 mph W3.7 kmh W 2.3 mph3.7 kmh 29.92 in1013.2 mb - 0.00 in0.0 mm 0.00 in0.0 mm
10:50 AM 27.5°F-2.5°C 19.7°F-6.8°C 72% 2.3 mph SW3.7 kmh SW 2.3 mph3.7 kmh 29.92 in1013.2 mb - 0.00 in0.0 mm 0.00 in0.0 mm
11:00 AM 27.9°F-2.3°C 19.4°F-7.0°C 70% 3.5 mph SW5.6 kmh SW 2.3 mph3.7 kmh 29.93 in1013.5 mb - 0.00 in0.0 mm 0.00 in0.0 mm
11:10 AM 28.1°F-2.2°C 19.9°F-6.7°C 71% 3.5 mph SW5.6 kmh SW 5.8 mph9.3 kmh 30.07 in1018.3 mb - 0.00 in0.0 mm 0.00 in0.0 mm
11:20 AM 27.9°F-2.3°C 21.0°F-6.1°C 75% 1.2 mph SW1.9 kmh SW 2.3 mph3.7 kmh 30.25 in1024.4 mb - 0.00 in0.0 mm 0.00 in0.0 mm
11:30 AM 28.3°F-2.1°C 21.1°F-6.1°C 74% 3.5 mph SW5.6 kmh SW 2.3 mph3.7 kmh 30.22 in1023.4 mb - 0.00 in0.0 mm 0.00 in0.0 mm
11:40 AM 29.2°F-1.6°C 21.7°F-5.7°C 73% 1.2 mph SW1.9 kmh SW 1.2 mph1.9 kmh 30.19 in1022.4 mb - 0.00 in0.0 mm 0.00 in0.0 mm
11:50 AM 29.7°F-1.3°C 20.4°F-6.4°C 68% 3.5 mph SW5.6 kmh SW 2.3 mph3.7 kmh 30.09 in1019.0 mb - 0.00 in0.0 mm 0.00 in0.0 mm
12:00 PM 30.1°F-1.1°C 21.2°F-6.0°C 69% 2.3 mph SW3.7 kmh SW 2.3 mph3.7 kmh 30.12 in1020.0 mb - 0.00 in0.0 mm 0.00 in0.0 mm
12:10 PM 31.1°F-0.5°C 22.1°F-5.5°C 69% 3.5 mph W5.6 kmh W 2.3 mph3.7 kmh 30.17 in1021.7 mb - 0.00 in0.0 mm 0.00 in0.0 mm
12:20 PM 31.7°F-0.2°C 24.0°F-4.4°C 73% 2.3 mph NNW3.7 kmh NNW 3.5 mph5.6 kmh 30.26 in1024.7 mb - 0.01 in0.3 mm 0.01 in0.3 mm
12:30 PM 32.4°F0.2°C 23.7°F-4.6°C 70% 2.3 mph SSW3.7 kmh SSW 1.2 mph1.9 kmh 30.26 in1024.7 mb - 0.00 in0.0 mm 0.01 in0.3 mm
12:40 PM 32.0°F0.0°C 24.0°F-4.4°C 72% 5.8 mph NW9.3 kmh NW 5.8 mph9.3 kmh 30.27 in1025.1 mb - 0.00 in0.0 mm 0.01 in0.3 mm
12:50 PM 31.9°F-0.1°C 23.6°F-4.7°C 71% 4.6 mph WSW7.4 kmh WSW 3.5 mph5.6 kmh 30.26 in1024.7 mb - 0.00 in0.0 mm 0.01 in0.3 mm
01:00 PM 31.6°F-0.2°C 22.9°F-5.1°C 70% 5.8 mph WSW9.3 kmh WSW 5.8 mph9.3 kmh 30.26 in1024.7 mb - 0.00 in0.0 mm 0.01 in0.3 mm
01:10 PM 31.5°F-0.3°C 22.8°F-5.1°C 70% 5.8 mph WSW9.3 kmh WSW 9.2 mph14.8 kmh 30.26 in1024.7 mb - 0.00 in0.0 mm 0.01 in0.3 mm
01:20 PM 31.6°F-0.2°C 23.0°F-5.0°C 70% 5.8 mph NNW9.3 kmh NNW 6.9 mph11.1 kmh 30.26 in1024.7 mb - 0.00 in0.0 mm 0.01 in0.3 mm
01:30 PM 32.3°F0.2°C 22.9°F-5.1°C 68% 3.5 mph WSW5.6 kmh WSW 2.3 mph3.7 kmh 30.27 in1025.1 mb - 0.00 in0.0 mm 0.01 in0.3 mm
01:40 PM 31.6°F-0.2°C 22.6°F-5.2°C 69% 3.5 mph N5.6 kmh N 2.3 mph3.7 kmh 30.27 in1025.1 mb - 0.00 in0.0 mm 0.01 in0.3 mm
01:50 PM 31.4°F-0.3°C 22.7°F-5.2°C 70% 9.2 mph WNW14.8 kmh WNW 9.2 mph14.8 kmh 30.27 in1025.1 mb - 0.00 in0.0 mm 0.01 in0.3 mm
02:00 PM 31.3°F-0.4°C 22.3°F-5.4°C 69% 5.8 mph SW9.3 kmh SW 8.1 mph13.0 kmh 30.27 in1025.1 mb - 0.00 in0.0 mm 0.01 in0.3 mm
02:10 PM 31.6°F-0.2°C 22.9°F-5.1°C 70% 3.5 mph N5.6 kmh N 5.8 mph9.3 kmh 30.28 in1025.4 mb - 0.00 in0.0 mm 0.01 in0.3 mm
02:20 PM 31.3°F-0.4°C 23.7°F-4.6°C 73% 2.3 mph WSW3.7 kmh WSW 2.3 mph3.7 kmh 30.32 in1026.8 mb - 0.00 in0.0 mm 0.01 in0.3 mm
02:30 PM 31.4°F-0.3°C 24.7°F-4.1°C 76% 3.5 mph NNW5.6 kmh NNW 3.5 mph5.6 kmh 30.41 in1029.8 mb - 0.00 in0.0 mm 0.01 in0.3 mm
02:40 PM 30.5°F-0.8°C 24.2°F-4.3°C 77% 5.8 mph WSW9.3 kmh WSW 5.8 mph9.3 kmh 30.44 in1030.8 mb - 0.00 in0.0 mm 0.01 in0.3 mm
02:50 PM 30.1°F-1.1°C 24.0°F-4.4°C 78% 4.6 mph WNW7.4 kmh WNW 5.8 mph9.3 kmh 30.45 in1031.2 mb - 0.00 in0.0 mm 0.01 in0.3 mm
03:00 PM 29.5°F-1.4°C 24.1°F-4.4°C 80% 2.3 mph WNW3.7 kmh WNW 3.5 mph5.6 kmh 30.47 in1031.8 mb - 0.00 in0.0 mm 0.01 in0.3 mm
03:10 PM 29.2°F-1.6°C 24.1°F-4.4°C 81% 3.5 mph WSW5.6 kmh WSW 2.3 mph3.7 kmh 30.46 in1031.5 mb - 0.00 in0.0 mm 0.01 in0.3 mm
03:20 PM 29.1°F-1.6°C 23.7°F-4.6°C 80% 6.9 mph W11.1 kmh W 5.8 mph9.3 kmh 30.43 in1030.5 mb - 0.00 in0.0 mm 0.01 in0.3 mm
03:30 PM 29.0°F-1.7°C 24.2°F-4.3°C 82% 3.5 mph WNW5.6 kmh WNW 2.3 mph3.7 kmh 30.43 in1030.5 mb - 0.00 in0.0 mm 0.01 in0.3 mm
03:40 PM 28.9°F-1.7°C 24.1°F-4.4°C 82% 3.5 mph SW5.6 kmh SW 2.3 mph3.7 kmh 30.44 in1030.8 mb - 0.00 in0.0 mm 0.01 in0.3 mm
03:50 PM 28.4°F-2.0°C 24.7°F-4.1°C 86% 2.3 mph WSW3.7 kmh WSW 1.2 mph1.9 kmh 30.46 in1031.5 mb - 0.00 in0.0 mm 0.01 in0.3 mm
04:00 PM 28.0°F-2.2°C 24.4°F-4.2°C 86% 2.3 mph WSW3.7 kmh WSW 2.3 mph3.7 kmh 30.48 in1032.2 mb - 0.00 in0.0 mm 0.01 in0.3 mm
04:10 PM 27.7°F-2.4°C 24.6°F-4.1°C 88% 6.9 mph NW11.1 kmh NW 6.9 mph11.1 kmh 30.51 in1033.2 mb - 0.00 in0.0 mm 0.01 in0.3 mm
04:20 PM 27.5°F-2.5°C 24.7°F-4.1°C 89% 2.3 mph NW3.7 kmh NW 2.3 mph3.7 kmh 30.52 in1033.5 mb - 0.00 in0.0 mm 0.01 in0.3 mm
04:30 PM 27.1°F-2.7°C 24.8°F-4.0°C 91% 1.2 mph NW1.9 kmh NW 2.3 mph3.7 kmh 30.55 in1034.5 mb - 0.00 in0.0 mm 0.01 in0.3 mm
04:40 PM 26.6°F-3.0°C 24.8°F-4.0°C 93% 2.3 mph NW3.7 kmh NW 1.2 mph1.9 kmh 30.57 in1035.2 mb - 0.00 in0.0 mm 0.01 in0.3 mm
04:50 PM 26.3°F-3.2°C 24.8°F-4.0°C 94% 3.5 mph N5.6 kmh N 2.3 mph3.7 kmh 30.60 in1036.2 mb - 0.00 in0.0 mm 0.01 in0.3 mm
05:00 PM 25.7°F-3.5°C 24.2°F-4.3°C 94% Calm Calm 2.3 mph3.7 kmh 30.62 in1036.9 mb - 0.00 in0.0 mm 0.01 in0.3 mm
05:10 PM 24.8°F-4.0°C 23.1°F-4.9°C 93% Calm Calm -- 30.64 in1037.6 mb - 0.00 in0.0 mm 0.01 in0.3 mm
05:20 PM 24.1°F-4.4°C 22.4°F-5.3°C 93% Calm Calm -- 30.66 in1038.3 mb - 0.00 in0.0 mm 0.01 in0.3 mm
05:30 PM 23.4°F-4.8°C 21.7°F-5.7°C 93% Calm Calm -- 30.67 in1038.6 mb - 0.00 in0.0 mm 0.01 in0.3 mm
05:40 PM 22.8°F-5.1°C 21.1°F-6.1°C 93% Calm Calm -- 30.68 in1038.9 mb - 0.00 in0.0 mm 0.01 in0.3 mm
05:50 PM 22.0°F-5.6°C 20.3°F-6.5°C 93% Calm Calm -- 30.70 in1039.6 mb - 0.00 in0.0 mm 0.01 in0.3 mm
06:00 PM 21.4°F-5.9°C 19.7°F-6.8°C 93% Calm Calm -- 30.72 in1040.3 mb - 0.00 in0.0 mm 0.01 in0.3 mm
06:10 PM 21.3°F-5.9°C 19.6°F-6.9°C 93% Calm Calm -- 30.74 in1041.0 mb - 0.00 in0.0 mm 0.01 in0.3 mm
06:20 PM 21.3°F-5.9°C 19.6°F-6.9°C 93% Calm Calm -- 30.74 in1041.0 mb - 0.00 in0.0 mm 0.01 in0.3 mm
06:30 PM 20.4°F-6.4°C 18.7°F-7.4°C 93% Calm Calm -- 30.76 in1041.7 mb - 0.00 in0.0 mm 0.01 in0.3 mm
06:40 PM 20.9°F-6.2°C 19.2°F-7.1°C 93% Calm Calm -- 30.78 in1042.3 mb - 0.00 in0.0 mm 0.01 in0.3 mm
06:50 PM 20.5°F-6.4°C 18.8°F-7.3°C 93% Calm Calm -- 30.79 in1042.7 mb - 0.00 in0.0 mm 0.01 in0.3 mm
07:00 PM 19.9°F-6.7°C 18.2°F-7.7°C 93% Calm Calm -- 30.79 in1042.7 mb - 0.00 in0.0 mm 0.01 in0.3 mm
07:10 PM 21.0°F-6.1°C 19.3°F-7.1°C 93% Calm Calm -- 30.80 in1043.0 mb - 0.00 in0.0 mm 0.01 in0.3 mm
07:20 PM 21.5°F-5.8°C 19.8°F-6.8°C 93% 2.3 mph SW3.7 kmh SW 1.2 mph1.9 kmh 30.81 in1043.3 mb - 0.00 in0.0 mm 0.01 in0.3 mm
07:30 PM 21.1°F-6.1°C 19.4°F-7.0°C 93% 1.2 mph W1.9 kmh W 2.3 mph3.7 kmh 30.83 in1044.0 mb - 0.00 in0.0 mm 0.01 in0.3 mm
07:40 PM 21.0°F-6.1°C 19.3°F-7.1°C 93% 1.2 mph WSW1.9 kmh WSW -- 30.84 in1044.4 mb - 0.00 in0.0 mm 0.01 in0.3 mm
07:50 PM 21.3°F-5.9°C 19.6°F-6.9°C 93% Calm Calm -- 30.86 in1045.0 mb - 0.00 in0.0 mm 0.01 in0.3 mm
08:00 PM 21.3°F-5.9°C 19.6°F-6.9°C 93% 3.5 mph W5.6 kmh W 2.3 mph3.7 kmh 30.87 in1045.4 mb - 0.00 in0.0 mm 0.01 in0.3 mm
08:10 PM 22.0°F-5.6°C 20.3°F-6.5°C 93% 1.2 mph WSW1.9 kmh WSW 2.3 mph3.7 kmh 30.88 in1045.7 mb - 0.00 in0.0 mm 0.01 in0.3 mm
08:20 PM 22.2°F-5.4°C 20.5°F-6.4°C 93% 1.2 mph WSW1.9 kmh WSW 2.3 mph3.7 kmh 30.89 in1046.1 mb - 0.00 in0.0 mm 0.01 in0.3 mm
08:30 PM 22.1°F-5.5°C 20.4°F-6.4°C 93% 1.2 mph W1.9 kmh W 1.2 mph1.9 kmh 30.90 in1046.4 mb - 0.00 in0.0 mm 0.01 in0.3 mm
08:40 PM 21.9°F-5.6°C 20.2°F-6.6°C 93% 2.3 mph WNW3.7 kmh WNW 2.3 mph3.7 kmh 30.91 in1046.7 mb - 0.00 in0.0 mm 0.01 in0.3 mm
08:50 PM 21.5°F-5.8°C 19.8°F-6.8°C 93% 3.5 mph W5.6 kmh W 2.3 mph3.7 kmh 30.92 in1047.1 mb - 0.00 in0.0 mm 0.01 in0.3 mm
09:00 PM 21.6°F-5.8°C 19.9°F-6.7°C 93% 3.5 mph WSW5.6 kmh WSW 2.3 mph3.7 kmh 30.93 in1047.4 mb - 0.00 in0.0 mm 0.01 in0.3 mm
09:10 PM 21.8°F-5.7°C 20.1°F-6.6°C 93% 2.3 mph WSW3.7 kmh WSW 1.2 mph1.9 kmh 30.94 in1047.7 mb - 0.00 in0.0 mm 0.01 in0.3 mm
09:20 PM 21.9°F-5.6°C 20.2°F-6.6°C 93% 3.5 mph SW5.6 kmh SW 3.5 mph5.6 kmh 30.95 in1048.1 mb - 0.00 in0.0 mm 0.01 in0.3 mm
09:30 PM 21.7°F-5.7°C 20.0°F-6.7°C 93% 3.5 mph NW5.6 kmh NW 2.3 mph3.7 kmh 30.95 in1048.1 mb - 0.00 in0.0 mm 0.01 in0.3 mm
09:40 PM 21.8°F-5.7°C 20.1°F-6.6°C 93% 1.2 mph WNW1.9 kmh WNW 1.2 mph1.9 kmh 30.96 in1048.4 mb - 0.00 in0.0 mm 0.01 in0.3 mm
09:50 PM 21.7°F-5.7°C 20.0°F-6.7°C 93% 2.3 mph WSW3.7 kmh WSW 2.3 mph3.7 kmh 30.97 in1048.8 mb - 0.00 in0.0 mm 0.01 in0.3 mm
10:00 PM 21.6°F-5.8°C 19.9°F-6.7°C 93% 2.3 mph SW3.7 kmh SW 2.3 mph3.7 kmh 30.97 in1048.8 mb - 0.00 in0.0 mm 0.01 in0.3 mm
10:10 PM 21.6°F-5.8°C 19.9°F-6.7°C 93% 3.5 mph WSW5.6 kmh WSW 2.3 mph3.7 kmh 30.98 in1049.1 mb - 0.00 in0.0 mm 0.01 in0.3 mm
10:20 PM 21.3°F-5.9°C 19.6°F-6.9°C 93% 1.2 mph WSW1.9 kmh WSW 1.2 mph1.9 kmh 30.98 in1049.1 mb - 0.00 in0.0 mm 0.01 in0.3 mm
10:30 PM 21.1°F-6.1°C 19.4°F-7.0°C 93% 3.5 mph W5.6 kmh W 2.3 mph3.7 kmh 30.98 in1049.1 mb - 0.00 in0.0 mm 0.01 in0.3 mm
10:40 PM 20.9°F-6.2°C 19.2°F-7.1°C 93% 5.8 mph W9.3 kmh W 5.8 mph9.3 kmh 30.99 in1049.4 mb - 0.00 in0.0 mm 0.01 in0.3 mm
10:50 PM 20.7°F-6.3°C 19.0°F-7.2°C 93% 1.2 mph NW1.9 kmh NW 1.2 mph1.9 kmh 31.00 in1049.8 mb - 0.00 in0.0 mm 0.01 in0.3 mm
11:00 PM 20.5°F-6.4°C 18.8°F-7.3°C 93% 2.3 mph NW3.7 kmh NW 2.3 mph3.7 kmh 31.00 in1049.8 mb - 0.00 in0.0 mm 0.01 in0.3 mm
11:10 PM 20.2°F-6.6°C 18.5°F-7.5°C 93% 2.3 mph WSW3.7 kmh WSW 2.3 mph3.7 kmh 31.00 in1049.8 mb - 0.00 in0.0 mm 0.01 in0.3 mm
11:20 PM 20.0°F-6.7°C 18.3°F-7.6°C 93% 1.2 mph W1.9 kmh W 1.2 mph1.9 kmh 31.00 in1049.8 mb - 0.00 in0.0 mm 0.01 in0.3 mm
11:30 PM 19.8°F-6.8°C 18.1°F-7.7°C 93% 3.5 mph WSW5.6 kmh WSW 2.3 mph3.7 kmh 31.00 in1049.8 mb - 0.00 in0.0 mm 0.01 in0.3 mm
11:40 PM 19.8°F-6.8°C 18.1°F-7.7°C 93% 1.2 mph W1.9 kmh W 1.2 mph1.9 kmh 31.00 in1049.8 mb - 0.00 in0.0 mm 0.01 in0.3 mm
11:50 PM 19.5°F-6.9°C 17.8°F-7.9°C 93% Calm Calm 2.3 mph3.7 kmh 31.00 in1049.8 mb - 0.00 in0.0 mm 0.01 in0.3 mm